createdAt,value
2018-12-09T00:00:19.593Z,931.46
2018-12-09T00:01:27.646Z,931.38
2018-12-09T00:02:35.794Z,931.27
2018-12-09T00:03:43.776Z,931.35
2018-12-09T00:04:51.917Z,931.38
2018-12-09T00:05:59.882Z,931.36
2018-12-09T00:07:07.939Z,931.32
2018-12-09T00:08:16.085Z,931.30
2018-12-09T00:09:24.043Z,931.38
2018-12-09T00:10:32.117Z,931.35
2018-12-09T00:11:40.174Z,931.44
2018-12-09T00:12:48.245Z,931.44
2018-12-09T00:13:56.392Z,931.38
2018-12-09T00:15:04.365Z,931.33
2018-12-09T00:16:12.420Z,931.31
2018-12-09T00:17:20.468Z,931.23
2018-12-09T00:18:28.555Z,931.30
2018-12-09T00:19:36.677Z,931.36
2018-12-09T00:20:44.735Z,931.28
2018-12-09T00:21:52.713Z,931.31
2018-12-09T00:23:00.761Z,931.29
2018-12-09T00:24:08.828Z,931.33
2018-12-09T00:25:16.982Z,931.29
2018-12-09T00:26:24.922Z,931.30
2018-12-09T00:27:33.096Z,931.46
2018-12-09T00:28:41.060Z,931.40
2018-12-09T00:29:49.128Z,931.26
2018-12-09T00:30:57.294Z,931.27
2018-12-09T00:32:05.205Z,931.32
2018-12-09T00:33:13.308Z,931.34
2018-12-09T00:34:21.358Z,931.31
2018-12-09T00:35:29.472Z,931.26
2018-12-09T00:36:37.565Z,931.28
2018-12-09T00:37:45.501Z,931.26
2018-12-09T00:38:53.571Z,931.06
2018-12-09T00:40:01.656Z,931.08
2018-12-09T00:41:09.717Z,931.06
2018-12-09T00:42:17.865Z,931.03
2018-12-09T00:43:25.916Z,930.80
2018-12-09T00:44:33.878Z,930.83
2018-12-09T00:45:41.949Z,930.84
2018-12-09T00:46:49.999Z,930.82
2018-12-09T00:47:58.165Z,931.01
2018-12-09T00:49:06.112Z,930.92
2018-12-09T00:50:14.185Z,930.78
2018-12-09T00:51:22.235Z,930.78
2018-12-09T00:52:30.294Z,930.83
2018-12-09T00:53:38.456Z,930.82
2018-12-09T00:54:46.421Z,930.80
2018-12-09T00:55:54.489Z,930.88
2018-12-09T00:57:02.532Z,930.84
2018-12-09T00:58:10.695Z,930.81
2018-12-09T00:59:18.650Z,930.85
2018-12-09T01:00:26.724Z,930.91
2018-12-09T01:01:34.771Z,930.81
2018-12-09T01:02:43.007Z,930.88
2018-12-09T01:03:50.990Z,930.87
2018-12-09T01:04:58.960Z,930.92
2018-12-09T01:06:07.012Z,930.91
2018-12-09T01:07:15.046Z,930.80
2018-12-09T01:08:23.568Z,930.78
2018-12-09T01:09:31.243Z,930.74
2018-12-09T01:10:39.247Z,930.77
2018-12-09T01:11:47.306Z,930.76
2018-12-09T01:12:55.355Z,930.68
2018-12-09T01:14:03.426Z,930.70
2018-12-09T01:15:11.563Z,930.65
2018-12-09T01:16:19.541Z,930.57
2018-12-09T01:17:27.606Z,930.64
2018-12-09T01:18:35.674Z,930.58
2018-12-09T01:19:43.716Z,930.60
2018-12-09T01:20:51.883Z,930.61
2018-12-09T01:21:59.849Z,930.54
2018-12-09T01:23:07.913Z,930.50
2018-12-09T01:24:16.051Z,930.61
2018-12-09T01:25:24.007Z,930.54
2018-12-09T01:26:32.168Z,930.43
2018-12-09T01:27:40.127Z,930.50
2018-12-09T01:28:48.329Z,930.51
2018-12-09T01:29:56.253Z,930.44
2018-12-09T01:31:04.315Z,930.34
2018-12-09T01:32:12.438Z,930.13
2018-12-09T01:33:20.407Z,930.25
2018-12-09T01:34:28.486Z,930.23
2018-12-09T01:35:36.543Z,930.20
2018-12-09T01:36:44.610Z,930.12
2018-12-09T01:37:52.853Z,930.13
2018-12-09T01:39:00.733Z,930.09
2018-12-09T01:40:08.865Z,929.97
2018-12-09T01:41:16.837Z,930.14
2018-12-09T01:42:24.870Z,930.09
2018-12-09T01:43:33.049Z,930.10
2018-12-09T01:44:41.005Z,930.19
2018-12-09T01:45:49.078Z,930.24
2018-12-09T01:46:57.127Z,930.16
2018-12-09T01:48:05.165Z,930.14
2018-12-09T01:49:13.343Z,930.15
2018-12-09T01:50:21.306Z,930.05
2018-12-09T01:51:29.373Z,930.01
2018-12-09T01:52:37.418Z,930.05
2018-12-09T01:53:45.479Z,929.96
2018-12-09T01:54:53.654Z,929.98
2018-12-09T01:56:01.602Z,929.91
2018-12-09T01:57:09.661Z,929.85
2018-12-09T01:58:17.731Z,929.81
2018-12-09T01:59:25.778Z,929.85
2018-12-09T02:00:33.964Z,929.91
2018-12-09T02:01:41.908Z,929.82
2018-12-09T02:02:49.959Z,929.80
2018-12-09T02:03:58.021Z,929.79
2018-12-09T02:05:06.179Z,929.70
2018-12-09T02:06:14.229Z,929.72
2018-12-09T02:07:22.206Z,929.61
2018-12-09T02:08:30.262Z,929.67
2018-12-09T02:09:38.427Z,929.58
2018-12-09T02:10:46.374Z,929.53
2018-12-09T02:11:54.542Z,929.55
2018-12-09T02:13:02.518Z,929.54
2018-12-09T02:14:10.546Z,929.56
2018-12-09T02:15:18.614Z,929.57
2018-12-09T02:16:26.663Z,929.57
2018-12-09T02:17:34.814Z,929.61
2018-12-09T02:18:42.782Z,929.52
2018-12-09T02:19:50.858Z,929.48
2018-12-09T02:20:58.908Z,929.44
2018-12-09T02:22:06.959Z,929.47
2018-12-09T02:23:15.106Z,929.46
2018-12-09T02:24:23.080Z,929.44
2018-12-09T02:25:31.230Z,929.46
2018-12-09T02:26:39.195Z,929.45
2018-12-09T02:27:47.418Z,929.37
2018-12-09T02:28:55.408Z,929.38
2018-12-09T02:30:03.478Z,929.28
2018-12-09T02:31:11.447Z,929.29
2018-12-09T02:32:19.504Z,929.35
2018-12-09T02:33:27.560Z,929.27
2018-12-09T02:34:35.692Z,929.33
2018-12-09T02:35:43.674Z,929.40
2018-12-09T02:36:51.741Z,929.35
2018-12-09T02:37:59.802Z,929.41
2018-12-09T02:39:07.856Z,929.37
2018-12-09T02:40:16.018Z,929.33
2018-12-09T02:41:23.976Z,929.36
2018-12-09T02:42:32.037Z,929.34
2018-12-09T02:43:40.090Z,929.39
2018-12-09T02:44:48.148Z,929.42
2018-12-09T02:45:56.299Z,929.30
2018-12-09T02:47:04.310Z,929.25
2018-12-09T02:48:12.329Z,929.28
2018-12-09T02:49:20.401Z,929.22
2018-12-09T02:50:28.544Z,929.31
2018-12-09T02:51:36.614Z,929.21
2018-12-09T02:52:44.576Z,929.12
2018-12-09T02:53:52.634Z,929.14
2018-12-09T02:55:00.697Z,929.11
2018-12-09T02:56:08.756Z,929.09
2018-12-09T02:57:16.914Z,929.17
2018-12-09T02:58:24.856Z,929.18
2018-12-09T02:59:32.927Z,929.23
2018-12-09T03:00:40.998Z,929.33
2018-12-09T03:01:49.049Z,929.31
2018-12-09T03:02:57.197Z,929.29
2018-12-09T03:04:05.142Z,929.33
2018-12-09T03:05:13.231Z,929.30
2018-12-09T03:06:21.388Z,929.23
2018-12-09T03:07:29.344Z,929.30
2018-12-09T03:08:37.525Z,929.34
2018-12-09T03:09:45.437Z,929.30
2018-12-09T03:10:53.624Z,929.21
2018-12-09T03:12:01.598Z,929.22
2018-12-09T03:13:09.655Z,929.35
2018-12-09T03:14:17.809Z,929.34
2018-12-09T03:15:25.765Z,929.42
2018-12-09T03:16:33.826Z,929.36
2018-12-09T03:17:41.894Z,929.33
2018-12-09T03:18:49.944Z,929.36
2018-12-09T03:19:58.095Z,929.38
2018-12-09T03:21:06.431Z,929.38
2018-12-09T03:22:14.125Z,929.29
2018-12-09T03:23:22.192Z,929.32
2018-12-09T03:24:30.264Z,929.29
2018-12-09T03:25:38.405Z,929.34
2018-12-09T03:26:46.417Z,929.38
2018-12-09T03:27:54.422Z,929.32
2018-12-09T03:29:02.576Z,929.39
2018-12-09T03:30:10.564Z,929.31
2018-12-09T03:31:18.713Z,929.45
2018-12-09T03:32:26.653Z,929.45
2018-12-09T03:33:34.726Z,929.47
2018-12-09T03:34:42.782Z,929.51
2018-12-09T03:35:50.854Z,929.52
2018-12-09T03:36:59.006Z,929.62
2018-12-09T03:38:06.959Z,929.61
2018-12-09T03:39:15.012Z,929.56
2018-12-09T03:40:23.579Z,929.54
2018-12-09T03:41:31.125Z,929.51
2018-12-09T03:42:39.390Z,929.56
2018-12-09T03:43:47.340Z,929.58
2018-12-09T03:44:56.413Z,929.50
2018-12-09T03:46:03.377Z,929.49
2018-12-09T03:47:11.502Z,929.42
2018-12-09T03:48:24.855Z,929.53
2018-12-09T03:49:27.556Z,929.57
2018-12-09T03:50:35.597Z,929.46
2018-12-09T03:51:45.147Z,929.58
2018-12-09T03:52:51.735Z,929.54
2018-12-09T03:53:59.889Z,929.49
2018-12-09T03:55:07.878Z,929.46
2018-12-09T03:56:15.905Z,929.42
2018-12-09T03:57:23.973Z,929.30
2018-12-09T03:58:32.032Z,929.38
2018-12-09T03:59:40.185Z,929.36
2018-12-09T04:00:48.178Z,929.39
2018-12-09T04:01:56.204Z,929.31
2018-12-09T04:03:04.278Z,929.33
2018-12-09T04:04:12.318Z,929.31
2018-12-09T04:05:20.481Z,929.33
2018-12-09T04:06:28.460Z,929.30
2018-12-09T04:07:36.614Z,929.22
2018-12-09T04:08:44.577Z,929.19
2018-12-09T04:09:52.633Z,929.15
2018-12-09T04:11:00.791Z,929.18
2018-12-09T04:12:08.849Z,929.09
2018-12-09T04:13:16.820Z,929.09
2018-12-09T04:14:24.853Z,928.99
2018-12-09T04:15:33.082Z,928.95
2018-12-09T04:16:41.092Z,928.96
2018-12-09T04:17:49.050Z,929.05
2018-12-09T04:18:57.107Z,929.11
2018-12-09T04:20:05.151Z,929.24
2018-12-09T04:21:13.232Z,929.16
2018-12-09T04:22:21.391Z,929.11
2018-12-09T04:23:29.346Z,929.15
2018-12-09T04:24:37.489Z,929.02
2018-12-09T04:25:45.436Z,928.89
2018-12-09T04:26:53.524Z,928.87
2018-12-09T04:28:01.686Z,928.67
2018-12-09T04:29:09.649Z,928.72
2018-12-09T04:30:17.725Z,928.82
2018-12-09T04:31:25.765Z,928.95
2018-12-09T04:32:33.927Z,928.97
2018-12-09T04:33:41.984Z,928.98
2018-12-09T04:34:49.955Z,928.88
2018-12-09T04:35:57.998Z,929.08
2018-12-09T04:37:06.062Z,929.08
2018-12-09T04:38:14.130Z,929.10
2018-12-09T04:39:22.274Z,929.21
2018-12-09T04:40:30.258Z,929.17
2018-12-09T04:41:38.302Z,929.16
2018-12-09T04:42:46.361Z,929.12
2018-12-09T04:43:54.434Z,929.14
2018-12-09T04:45:02.565Z,929.25
2018-12-09T04:46:10.529Z,929.26
2018-12-09T04:47:18.602Z,929.23
2018-12-09T04:48:26.786Z,929.12
2018-12-09T04:49:34.720Z,929.30
2018-12-09T04:50:42.890Z,929.34
2018-12-09T04:51:50.824Z,929.25
2018-12-09T04:52:58.988Z,929.37
2018-12-09T04:54:06.950Z,929.40
2018-12-09T04:55:14.997Z,929.42
2018-12-09T04:56:23.177Z,929.45
2018-12-09T04:57:31.127Z,929.54
2018-12-09T04:58:39.200Z,929.49
2018-12-09T04:59:47.256Z,929.58
2018-12-09T05:00:55.300Z,929.67
2018-12-09T05:02:03.466Z,929.72
2018-12-09T05:03:11.423Z,929.97
2018-12-09T05:04:19.498Z,930.02
2018-12-09T05:05:27.555Z,930.09
2018-12-09T05:06:35.593Z,930.07
2018-12-09T05:07:43.766Z,930.40
2018-12-09T05:08:51.823Z,930.48
2018-12-09T05:09:59.933Z,930.43
2018-12-09T05:11:07.834Z,930.52
2018-12-09T05:12:15.899Z,930.62
2018-12-09T05:13:24.056Z,930.66
2018-12-09T05:14:32.030Z,930.61
2018-12-09T05:15:40.084Z,930.54
2018-12-09T05:16:48.151Z,930.72
2018-12-09T05:17:56.205Z,930.85
2018-12-09T05:19:04.354Z,930.89
2018-12-09T05:20:12.317Z,930.97
2018-12-09T05:21:20.392Z,930.99
2018-12-09T05:22:28.459Z,931.06
2018-12-09T05:23:36.503Z,931.11
2018-12-09T05:24:44.643Z,931.13
2018-12-09T05:25:52.605Z,930.94
2018-12-09T05:27:00.658Z,930.95
2018-12-09T05:28:08.724Z,930.81
2018-12-09T05:29:16.887Z,930.68
2018-12-09T05:30:24.920Z,930.70
2018-12-09T05:31:32.902Z,930.65
2018-12-09T05:32:40.952Z,930.54
2018-12-09T05:33:49.129Z,930.53
2018-12-09T05:34:57.079Z,930.46
2018-12-09T05:36:05.203Z,930.44
2018-12-09T05:37:13.201Z,930.37
2018-12-09T05:38:21.254Z,930.24
2018-12-09T05:39:29.307Z,930.33
2018-12-09T05:40:37.371Z,930.37
2018-12-09T05:41:45.500Z,930.41
2018-12-09T05:42:53.484Z,930.36
2018-12-09T05:44:01.539Z,930.35
2018-12-09T05:45:09.596Z,930.41
2018-12-09T05:46:17.646Z,930.42
2018-12-09T05:47:25.783Z,930.51
2018-12-09T05:48:33.756Z,930.55
2018-12-09T05:49:41.915Z,930.52
2018-12-09T05:50:49.880Z,930.63
2018-12-09T05:51:57.949Z,930.65
2018-12-09T05:53:06.088Z,930.64
2018-12-09T05:54:14.299Z,930.66
2018-12-09T05:55:22.123Z,930.64
2018-12-09T05:56:30.180Z,930.63
2018-12-09T05:57:38.229Z,930.67
2018-12-09T05:58:46.381Z,930.72
2018-12-09T05:59:54.341Z,930.56
2018-12-09T06:01:02.415Z,930.56
2018-12-09T06:02:10.462Z,930.54
2018-12-09T06:03:18.517Z,930.45
2018-12-09T06:04:26.668Z,930.41
2018-12-09T06:05:34.643Z,930.32
2018-12-09T06:06:42.705Z,930.57
2018-12-09T06:07:50.741Z,930.50
2018-12-09T06:08:58.798Z,930.43
2018-12-09T06:10:07.113Z,930.35
2018-12-09T06:11:14.903Z,930.29
2018-12-09T06:12:22.966Z,930.08
2018-12-09T06:13:31.029Z,929.91
2018-12-09T06:14:39.101Z,929.83
2018-12-09T06:15:47.255Z,929.90
2018-12-09T06:16:55.186Z,929.91
2018-12-09T06:18:03.251Z,929.90
2018-12-09T06:19:11.323Z,930.03
2018-12-09T06:20:19.372Z,930.13
2018-12-09T06:21:27.527Z,930.22
2018-12-09T06:22:35.465Z,930.18
2018-12-09T06:23:43.540Z,930.40
2018-12-09T06:24:51.611Z,930.45
2018-12-09T06:25:59.726Z,930.54
2018-12-09T06:27:07.829Z,930.57
2018-12-09T06:28:15.762Z,930.63
2018-12-09T06:29:23.833Z,930.76
2018-12-09T06:30:31.892Z,930.81
2018-12-09T06:31:39.954Z,930.92
2018-12-09T06:32:48.253Z,930.78
2018-12-09T06:33:56.066Z,930.74
2018-12-09T06:35:04.235Z,930.74
2018-12-09T06:36:12.194Z,930.83
2018-12-09T06:37:20.233Z,930.56
2018-12-09T06:38:28.393Z,930.52
2018-12-09T06:39:36.357Z,930.48
2018-12-09T06:40:44.419Z,930.45
2018-12-09T06:41:52.470Z,930.49
2018-12-09T06:43:00.520Z,930.58
2018-12-09T06:44:08.643Z,930.83
2018-12-09T06:45:16.655Z,930.83
2018-12-09T06:46:24.705Z,930.88
2018-12-09T06:47:32.762Z,930.97
2018-12-09T06:48:40.830Z,930.88
2018-12-09T06:49:48.965Z,930.82
2018-12-09T06:50:57.038Z,930.99
2018-12-09T06:52:04.987Z,931.01
2018-12-09T06:53:13.045Z,931.03
2018-12-09T06:54:21.106Z,931.10
2018-12-09T06:55:29.268Z,931.16
2018-12-09T06:56:37.225Z,931.09
2018-12-09T06:57:45.436Z,931.09
2018-12-09T06:58:53.345Z,931.16
2018-12-09T07:00:01.430Z,931.11
2018-12-09T07:01:09.555Z,931.21
2018-12-09T07:02:17.518Z,931.16
2018-12-09T07:03:26.399Z,931.26
2018-12-09T07:04:33.683Z,931.27
2018-12-09T07:05:41.990Z,931.16
2018-12-09T07:06:50.086Z,931.28
2018-12-09T07:07:58.169Z,931.32
2018-12-09T07:09:05.865Z,931.36
2018-12-09T07:10:13.921Z,931.28
2018-12-09T07:11:22.774Z,931.37
2018-12-09T07:12:30.139Z,931.26
2018-12-09T07:13:38.094Z,931.20
2018-12-09T07:14:46.149Z,931.11
2018-12-09T07:15:54.211Z,931.09
2018-12-09T07:17:02.289Z,930.98
2018-12-09T07:18:10.424Z,930.97
2018-12-09T07:19:18.385Z,930.91
2018-12-09T07:20:26.450Z,930.96
2018-12-09T07:21:34.521Z,931.05
2018-12-09T07:22:42.571Z,931.13
2018-12-09T07:23:50.725Z,931.10
2018-12-09T07:24:58.671Z,931.11
2018-12-09T07:26:06.744Z,931.13
2018-12-09T07:27:15.133Z,931.12
2018-12-09T07:28:22.856Z,931.13
2018-12-09T07:29:31.503Z,931.13
2018-12-09T07:30:40.793Z,931.18
2018-12-09T07:31:47.396Z,931.20
2018-12-09T07:32:55.074Z,931.32
2018-12-09T07:34:03.152Z,931.44
2018-12-09T07:35:11.299Z,931.49
2018-12-09T07:36:19.999Z,931.61
2018-12-09T07:37:27.319Z,931.61
2018-12-09T07:38:35.383Z,931.65
2018-12-09T07:39:43.456Z,931.72
2018-12-09T07:40:51.597Z,931.66
2018-12-09T07:41:59.552Z,931.77
2018-12-09T07:43:07.607Z,931.80
2018-12-09T07:44:15.649Z,931.80
2018-12-09T07:45:23.726Z,931.84
2018-12-09T07:46:31.884Z,931.84
2018-12-09T07:47:39.838Z,931.92
2018-12-09T07:48:47.897Z,931.90
2018-12-09T07:49:55.952Z,931.89
2018-12-09T07:51:04.030Z,931.89
2018-12-09T07:52:12.171Z,931.92
2018-12-09T07:53:20.148Z,932.00
2018-12-09T07:54:28.193Z,931.98
2018-12-09T07:55:36.247Z,932.03
2018-12-09T07:56:44.539Z,932.07
2018-12-09T07:57:52.454Z,932.04
2018-12-09T07:59:00.457Z,932.09
2018-12-09T08:00:08.552Z,932.10
2018-12-09T08:01:16.747Z,932.13
2018-12-09T08:02:24.595Z,932.19
2018-12-09T08:03:33.186Z,932.24
2018-12-09T08:04:41.048Z,932.25
2018-12-09T08:05:48.778Z,932.27
2018-12-09T08:06:56.933Z,932.30
2018-12-09T08:08:04.909Z,932.47
2018-12-09T08:09:13.054Z,932.47
2018-12-09T08:10:21.022Z,932.44
2018-12-09T08:11:29.066Z,932.48
2018-12-09T08:12:37.219Z,932.52
2018-12-09T08:13:45.176Z,932.22
2018-12-09T08:14:53.335Z,932.60
2018-12-09T08:16:01.303Z,932.57
2018-12-09T08:17:09.363Z,932.60
2018-12-09T08:18:17.642Z,932.60
2018-12-09T08:19:25.452Z,932.65
2018-12-09T08:20:33.742Z,932.69
2018-12-09T08:21:41.593Z,932.80
2018-12-09T08:22:49.663Z,932.64
2018-12-09T08:23:57.704Z,932.67
2018-12-09T08:25:05.776Z,932.65
2018-12-09T08:26:13.921Z,932.72
2018-12-09T08:27:21.894Z,932.86
2018-12-09T08:28:30.041Z,932.87
2018-12-09T08:29:38.017Z,932.85
2018-12-09T08:30:46.069Z,932.88
2018-12-09T08:31:54.358Z,932.93
2018-12-09T08:33:02.190Z,932.97
2018-12-09T08:34:10.234Z,932.99
2018-12-09T08:35:18.342Z,932.96
2018-12-09T08:36:26.381Z,933.05
2018-12-09T08:37:34.568Z,933.02
2018-12-09T08:38:42.667Z,933.17
2018-12-09T08:39:50.524Z,933.04
2018-12-09T08:40:58.583Z,933.03
2018-12-09T08:42:06.645Z,933.05
2018-12-09T08:43:14.811Z,933.06
2018-12-09T08:44:22.773Z,932.98
2018-12-09T08:45:31.051Z,933.09
2018-12-09T08:46:39.325Z,933.05
2018-12-09T08:47:47.474Z,933.04
2018-12-09T08:48:55.485Z,933.01
2018-12-09T08:50:03.545Z,933.02
2018-12-09T08:51:11.610Z,933.09
2018-12-09T08:52:19.188Z,933.08
2018-12-09T08:53:27.862Z,933.05
2018-12-09T08:54:36.579Z,933.12
2018-12-09T08:55:43.359Z,933.09
2018-12-09T08:56:51.537Z,933.16
2018-12-09T08:57:59.760Z,933.18
2018-12-09T08:59:07.959Z,933.26
2018-12-09T09:00:15.698Z,933.23
2018-12-09T09:01:23.672Z,933.29
2018-12-09T09:02:32.215Z,933.23
2018-12-09T09:03:39.826Z,933.20
2018-12-09T09:04:48.052Z,933.07
2018-12-09T09:05:55.997Z,933.25
2018-12-09T09:07:03.977Z,933.21
2018-12-09T09:08:12.084Z,933.17
2018-12-09T09:09:20.300Z,933.27
2018-12-09T09:10:28.769Z,933.26
2018-12-09T09:11:36.701Z,933.30
2018-12-09T09:12:44.688Z,933.30
2018-12-09T09:13:52.586Z,933.41
2018-12-09T09:15:00.396Z,933.35
2018-12-09T09:16:08.772Z,933.39
2018-12-09T09:17:16.548Z,933.33
2018-12-09T09:18:24.647Z,933.26
2018-12-09T09:19:32.608Z,933.28
2018-12-09T09:20:40.758Z,933.26
2018-12-09T09:21:48.735Z,933.15
2018-12-09T09:22:56.879Z,933.25
2018-12-09T09:24:04.844Z,933.31
2018-12-09T09:25:12.922Z,933.31
2018-12-09T09:26:20.969Z,933.37
2018-12-09T09:27:29.032Z,933.39
2018-12-09T09:28:37.187Z,933.34
2018-12-09T09:29:45.128Z,933.27
2018-12-09T09:30:53.215Z,933.32
2018-12-09T09:32:01.261Z,933.35
2018-12-09T09:33:09.323Z,933.38
2018-12-09T09:34:17.481Z,933.34
2018-12-09T09:35:25.439Z,933.46
2018-12-09T09:36:33.575Z,933.41
2018-12-09T09:37:41.569Z,933.42
2018-12-09T09:38:49.722Z,933.42
2018-12-09T09:39:57.772Z,933.45
2018-12-09T09:41:05.726Z,933.50
2018-12-09T09:42:13.799Z,933.45
2018-12-09T09:43:21.894Z,933.42
2018-12-09T09:44:29.919Z,933.45
2018-12-09T09:45:38.084Z,933.44
2018-12-09T09:46:46.038Z,933.45
2018-12-09T09:47:54.110Z,933.41
2018-12-09T09:49:02.182Z,933.47
2018-12-09T09:50:11.988Z,933.43
2018-12-09T09:51:18.743Z,933.24
2018-12-09T09:52:26.347Z,933.35
2018-12-09T09:53:34.417Z,933.30
2018-12-09T09:54:42.561Z,933.32
2018-12-09T09:55:50.542Z,933.33
2018-12-09T09:56:58.686Z,933.28
2018-12-09T09:58:06.660Z,933.29
2018-12-09T09:59:14.815Z,933.23
2018-12-09T10:00:22.786Z,933.14
2018-12-09T10:01:30.838Z,933.16
2018-12-09T10:02:38.997Z,933.17
2018-12-09T10:03:46.962Z,933.17
2018-12-09T10:04:55.002Z,933.13
2018-12-09T10:06:03.082Z,933.11
2018-12-09T10:07:11.148Z,933.03
2018-12-09T10:08:19.297Z,933.08
2018-12-09T10:09:27.265Z,933.09
2018-12-09T10:10:35.299Z,933.03
2018-12-09T10:11:43.394Z,932.93
2018-12-09T10:12:51.453Z,932.89
2018-12-09T10:13:59.609Z,932.88
2018-12-09T10:15:07.632Z,932.92
2018-12-09T10:16:15.611Z,932.96
2018-12-09T10:17:23.695Z,932.95
2018-12-09T10:18:31.772Z,932.95
2018-12-09T10:19:39.926Z,932.93
2018-12-09T10:20:47.897Z,932.94
2018-12-09T10:21:55.948Z,932.93
2018-12-09T10:23:03.997Z,932.98
2018-12-09T10:24:12.065Z,932.90
2018-12-09T10:25:20.241Z,932.88
2018-12-09T10:26:36.191Z,932.89
2018-12-09T10:27:36.255Z,932.65
2018-12-09T10:28:44.323Z,932.71
2018-12-09T10:29:52.381Z,932.72
2018-12-09T10:31:00.531Z,932.67
2018-12-09T10:32:08.505Z,932.78
2018-12-09T10:33:16.582Z,932.77
2018-12-09T10:34:24.638Z,932.77
2018-12-09T10:35:32.786Z,932.77
2018-12-09T10:36:40.959Z,932.76
2018-12-09T10:37:48.814Z,932.69
2018-12-09T10:38:56.880Z,932.67
2018-12-09T10:40:05.034Z,932.82
2018-12-09T10:41:12.989Z,932.77
2018-12-09T10:42:21.172Z,932.84
2018-12-09T10:43:29.128Z,932.77
2018-12-09T10:44:37.198Z,932.72
2018-12-09T10:45:45.395Z,932.72
2018-12-09T10:46:53.316Z,932.78
2018-12-09T10:48:01.429Z,932.80
2018-12-09T10:49:09.448Z,932.66
2018-12-09T10:50:17.544Z,932.74
2018-12-09T10:51:25.547Z,932.74
2018-12-09T10:52:33.630Z,932.64
2018-12-09T10:53:41.800Z,932.57
2018-12-09T10:54:49.759Z,932.54
2018-12-09T10:55:57.924Z,932.64
2018-12-09T10:57:05.898Z,932.60
2018-12-09T10:58:13.937Z,932.69
2018-12-09T10:59:22.102Z,932.66
2018-12-09T11:00:30.167Z,932.59
2018-12-09T11:01:38.131Z,932.63
2018-12-09T11:02:46.225Z,932.58
2018-12-09T11:03:54.272Z,932.65
2018-12-09T11:05:02.430Z,932.69
2018-12-09T11:06:10.398Z,932.59
2018-12-09T11:07:18.471Z,932.73
2018-12-09T11:08:26.523Z,932.62
2018-12-09T11:09:34.587Z,932.53
2018-12-09T11:10:42.738Z,932.49
2018-12-09T11:11:50.708Z,932.47
2018-12-09T11:12:58.770Z,932.47
2018-12-09T11:14:06.839Z,932.24
2018-12-09T11:15:14.889Z,932.35
2018-12-09T11:16:23.047Z,932.38
2018-12-09T11:17:31.020Z,932.36
2018-12-09T11:18:39.093Z,932.54
2018-12-09T11:19:47.156Z,932.47
2018-12-09T11:20:55.182Z,932.32
2018-12-09T11:22:03.381Z,932.39
2018-12-09T11:23:11.332Z,932.46
2018-12-09T11:24:19.408Z,932.38
2018-12-09T11:25:27.460Z,932.42
2018-12-09T11:26:35.539Z,932.38
2018-12-09T11:27:43.667Z,932.36
2018-12-09T11:28:51.642Z,932.40
2018-12-09T11:29:59.720Z,932.42
2018-12-09T11:31:07.765Z,932.42
2018-12-09T11:32:15.923Z,932.38
2018-12-09T11:33:23.885Z,932.43
2018-12-09T11:34:31.941Z,932.47
2018-12-09T11:35:40.016Z,932.47
2018-12-09T11:36:48.064Z,932.44
2018-12-09T11:37:56.236Z,932.39
2018-12-09T11:39:04.187Z,932.38
2018-12-09T11:40:12.251Z,932.38
2018-12-09T11:41:20.318Z,932.44
2018-12-09T11:42:28.438Z,932.40
2018-12-09T11:43:36.447Z,932.35
2018-12-09T11:44:44.501Z,932.48
2018-12-09T11:45:52.574Z,932.35
2018-12-09T11:47:00.619Z,932.33
2018-12-09T11:48:08.787Z,932.42
2018-12-09T11:49:16.742Z,932.39
2018-12-09T11:50:24.809Z,932.40
2018-12-09T11:51:32.867Z,932.42
2018-12-09T11:52:40.917Z,932.40
2018-12-09T11:53:49.094Z,932.44
2018-12-09T11:54:57.042Z,932.45
2018-12-09T11:56:05.094Z,932.42
2018-12-09T11:57:13.160Z,932.49
2018-12-09T11:58:21.226Z,932.38
2018-12-09T11:59:29.373Z,932.39
2018-12-09T12:00:37.342Z,932.34
2018-12-09T12:01:45.381Z,932.40
2018-12-09T12:02:53.472Z,932.37
2018-12-09T12:04:01.624Z,932.36
2018-12-09T12:05:09.661Z,932.36
2018-12-09T12:06:17.636Z,932.28
2018-12-09T12:07:25.771Z,932.29
2018-12-09T12:08:33.765Z,932.28
2018-12-09T12:09:41.829Z,932.30
2018-12-09T12:10:49.980Z,932.27
2018-12-09T12:11:57.944Z,932.39
2018-12-09T12:13:05.988Z,932.27
2018-12-09T12:14:14.051Z,932.31
2018-12-09T12:15:22.139Z,932.22
2018-12-09T12:16:30.266Z,932.25
2018-12-09T12:17:38.226Z,932.17
2018-12-09T12:18:46.295Z,932.22
2018-12-09T12:19:54.352Z,932.12
2018-12-09T12:21:02.413Z,932.20
2018-12-09T12:22:10.527Z,932.22
2018-12-09T12:23:18.616Z,932.17
2018-12-09T12:24:26.631Z,932.14
2018-12-09T12:25:34.643Z,932.19
2018-12-09T12:26:42.713Z,932.20
2018-12-09T12:27:50.826Z,932.15
2018-12-09T12:28:58.844Z,932.12
2018-12-09T12:30:06.894Z,932.26
2018-12-09T12:31:14.944Z,932.18
2018-12-09T12:32:23.011Z,932.19
2018-12-09T12:33:31.211Z,932.11
2018-12-09T12:34:39.126Z,932.16
2018-12-09T12:35:47.194Z,932.17
2018-12-09T12:36:55.217Z,932.11
2018-12-09T12:38:03.404Z,932.13
2018-12-09T12:39:11.489Z,932.15
2018-12-09T12:40:19.423Z,932.07
2018-12-09T12:41:27.491Z,932.15
2018-12-09T12:42:35.623Z,932.14
2018-12-09T12:43:43.630Z,932.18
2018-12-09T12:44:51.668Z,932.18
2018-12-09T12:45:59.727Z,932.12
2018-12-09T12:47:07.793Z,932.08
2018-12-09T12:48:15.948Z,932.15
2018-12-09T12:49:23.895Z,932.13
2018-12-09T12:50:31.964Z,932.07
2018-12-09T12:51:40.014Z,932.14
2018-12-09T12:52:48.098Z,932.21
2018-12-09T12:53:56.236Z,932.10
2018-12-09T12:55:04.295Z,932.23
2018-12-09T12:56:12.267Z,932.17
2018-12-09T12:57:20.333Z,932.33
2018-12-09T12:58:28.369Z,932.24
2018-12-09T12:59:36.535Z,932.32
2018-12-09T13:00:44.506Z,932.31
2018-12-09T13:01:52.558Z,932.34
2018-12-09T13:03:00.623Z,932.33
2018-12-09T13:04:08.685Z,932.35
2018-12-09T13:05:16.832Z,932.34
2018-12-09T13:06:24.799Z,932.30
2018-12-09T13:07:32.864Z,932.28
2018-12-09T13:08:40.925Z,932.26
2018-12-09T13:09:48.989Z,932.22
2018-12-09T13:10:57.135Z,932.18
2018-12-09T13:12:05.078Z,932.21
2018-12-09T13:13:13.259Z,932.17
2018-12-09T13:14:21.226Z,932.23
2018-12-09T13:15:29.291Z,932.21
2018-12-09T13:16:37.441Z,932.18
2018-12-09T13:17:45.391Z,932.25
2018-12-09T13:18:53.473Z,932.25
2018-12-09T13:20:01.523Z,932.23
2018-12-09T13:21:09.590Z,932.22
2018-12-09T13:22:17.752Z,932.21
2018-12-09T13:23:25.679Z,932.11
2018-12-09T13:24:33.755Z,932.08
2018-12-09T13:25:41.825Z,932.18
2018-12-09T13:26:49.889Z,932.15
2018-12-09T13:27:58.065Z,932.07
2018-12-09T13:29:06.000Z,932.05
2018-12-09T13:30:14.197Z,932.07
2018-12-09T13:31:22.130Z,932.10
2018-12-09T13:32:30.237Z,932.13
2018-12-09T13:33:38.246Z,932.11
2018-12-09T13:34:46.324Z,932.10
2018-12-09T13:35:54.365Z,932.11
2018-12-09T13:37:02.431Z,932.07
2018-12-09T13:38:10.540Z,932.17
2018-12-09T13:39:18.545Z,932.18
2018-12-09T13:40:26.609Z,932.18
2018-12-09T13:41:34.664Z,932.19
2018-12-09T13:42:42.829Z,932.15
2018-12-09T13:43:50.888Z,932.23
2018-12-09T13:44:58.838Z,932.17
2018-12-09T13:46:06.914Z,932.29
2018-12-09T13:47:14.966Z,932.22
2018-12-09T13:48:23.118Z,932.33
2018-12-09T13:49:31.094Z,932.24
2018-12-09T13:50:39.150Z,932.29
2018-12-09T13:51:47.207Z,932.25
2018-12-09T13:52:55.257Z,932.21
2018-12-09T13:54:03.423Z,932.17
2018-12-09T13:55:11.379Z,932.11
2018-12-09T13:56:19.443Z,932.23
2018-12-09T13:57:27.525Z,932.22
2018-12-09T13:58:35.553Z,932.22
2018-12-09T13:59:43.728Z,932.21
2018-12-09T14:00:51.693Z,932.22
2018-12-09T14:01:59.737Z,932.17
2018-12-09T14:03:07.905Z,932.25
2018-12-09T14:04:15.866Z,932.21
2018-12-09T14:05:24.028Z,932.24
2018-12-09T14:06:31.992Z,932.23
2018-12-09T14:07:40.046Z,932.27
2018-12-09T14:08:48.109Z,932.22